Time;durP1;ratioP1;P1;durP2;ratioP2;P2;SDS_P1;SDS_P2;PMS_P1;PMS_P2;Temp;Humidity;BMP_temperature;BMP_pressure;BME280_temperature;BME280_humidity;BME280_pressure;Samples;Min_cycle;Max_cycle;Signal;HPM_P1;HPM_P2
2021/01/27 00:02:14;;;;;;;85.07;30.33;;;0.20;97.60;;;;;;5014904;28;20104;-69
2021/01/27 00:04:40;;;;;;;79.47;27.95;;;0.20;97.60;;;;;;5000342;28;20049;-69
2021/01/27 00:07:05;;;;;;;67.80;26.83;;;0.20;97.60;;;;;;5014978;28;20456;-69
2021/01/27 00:09:31;;;;;;;70.38;26.92;;;0.10;97.60;;;;;;4996247;28;20041;-69
2021/01/27 00:11:57;;;;;;;74.63;27.52;;;0.10;97.60;;;;;;4994260;28;20106;-69
2021/01/27 00:14:24;;;;;;;68.43;26.52;;;0.00;97.60;;;;;;4998852;28;20021;-66
2021/01/27 00:16:49;;;;;;;88.05;28.40;;;0.00;97.60;;;;;;4995346;28;20089;-69
2021/01/27 00:19:15;;;;;;;81.88;29.95;;;0.00;97.60;;;;;;4994807;28;20026;-69
2021/01/27 00:21:40;;;;;;;97.75;29.95;;;0.10;97.60;;;;;;5005395;28;20494;-68
2021/01/27 00:24:07;;;;;;;96.82;30.90;;;0.10;97.70;;;;;;4995074;28;20026;-69
2021/01/27 00:26:32;;;;;;;78.55;29.13;;;0.10;97.60;;;;;;4999376;28;20129;-69
2021/01/27 00:28:58;;;;;;;83.88;30.08;;;0.10;97.60;;;;;;4993732;28;20029;-69
2021/01/27 00:31:24;;;;;;;92.63;30.38;;;0.20;97.60;;;;;;5005212;28;21157;-69
2021/01/27 00:33:49;;;;;;;84.40;27.95;;;0.10;97.60;;;;;;5019513;28;20091;-69
2021/01/27 00:36:15;;;;;;;89.40;29.30;;;0.10;97.60;;;;;;5004416;28;20397;-69
2021/01/27 00:38:41;;;;;;;77.25;28.85;;;0.20;97.60;;;;;;4986080;28;20187;-69
2021/01/27 00:41:06;;;;;;;82.72;29.65;;;0.20;97.60;;;;;;5003947;28;20103;-69
2021/01/27 00:43:32;;;;;;;80.70;28.75;;;0.20;97.60;;;;;;4994518;28;20044;-69
2021/01/27 00:45:58;;;;;;;85.03;29.92;;;0.30;97.60;;;;;;5007745;28;20608;-69
2021/01/27 00:48:23;;;;;;;79.32;28.67;;;0.30;97.70;;;;;;4996550;28;20061;-69
2021/01/27 00:50:50;;;;;;;79.55;28.98;;;0.30;97.60;;;;;;5002534;28;20025;-69
2021/01/27 00:53:16;;;;;;;81.70;29.55;;;0.30;97.70;;;;;;4999212;28;20071;-68
2021/01/27 00:55:42;;;;;;;81.50;27.98;;;0.40;97.70;;;;;;5002571;28;20504;-69
2021/01/27 00:58:09;;;;;;;71.03;27.77;;;0.40;97.70;;;;;;5008287;28;20141;-67
2021/01/27 01:00:37;;;;;;;84.60;29.40;;;0.40;97.70;;;;;;5005118;28;20125;-69
2021/01/27 01:03:04;;;;;;;65.88;28.75;;;0.40;97.60;;;;;;5020511;23;20046;-66
2021/01/27 01:05:39;;;;;;;66.85;26.67;;;0.30;97.60;;;;;;5022581;28;20033;-66
2021/01/27 01:08:07;;;;;;;58.67;25.58;;;0.30;97.60;;;;;;5024570;28;20050;-66
2021/01/27 01:10:40;;;;;;;58.40;25.52;;;0.30;97.50;;;;;;5025739;28;20400;-66
2021/01/27 01:13:07;;;;;;;70.18;27.50;;;0.30;97.60;;;;;;5029448;28;20029;-66
2021/01/27 01:15:33;;;;;;;72.45;26.88;;;0.20;97.60;;;;;;5018919;28;20091;-66
2021/01/27 01:18:00;;;;;;;74.70;27.15;;;0.20;97.50;;;;;;5016972;28;20512;-65
2021/01/27 01:20:26;;;;;;;66.22;25.25;;;0.20;97.50;;;;;;5020923;28;20030;-66
2021/01/27 01:22:59;;;;;;;75.88;27.40;;;0.10;97.50;;;;;;5024293;28;20038;-65
2021/01/27 01:25:28;;;;;;;75.97;26.65;;;0.10;97.50;;;;;;5026719;28;20044;-66
2021/01/27 01:27:54;;;;;;;79.30;27.65;;;0.10;97.60;;;;;;5025177;28;20112;-66
2021/01/27 01:30:20;;;;;;;83.88;27.33;;;0.00;97.60;;;;;;5021109;28;20547;-65
2021/01/27 01:32:46;;;;;;;82.68;27.95;;;0.00;97.60;;;;;;5026047;28;20213;-66
2021/01/27 01:35:13;;;;;;;89.35;29.40;;;0.00;97.60;;;;;;5026146;28;20057;-66
2021/01/27 01:37:41;;;;;;;94.22;29.40;;;0.00;97.60;;;;;;5028135;28;20021;-65
2021/01/27 01:40:08;;;;;;;88.80;30.30;;;-3276.70;97.60;;;;;;5025786;28;20412;-66
2021/01/27 01:42:33;;;;;;;105.68;30.42;;;-3276.70;97.60;;;;;;5033593;28;20036;-66
2021/01/27 01:44:59;;;;;;;112.50;31.45;;;-3276.70;97.60;;;;;;5026384;28;20593;-65
2021/01/27 01:47:26;;;;;;;122.55;33.35;;;0.00;97.70;;;;;;5020357;28;20342;-66
2021/01/27 01:49:53;;;;;;;120.90;34.97;;;-3276.70;97.70;;;;;;5032201;28;20449;-66
2021/01/27 01:52:19;;;;;;;122.43;33.78;;;0.00;97.70;;;;;;5009354;28;20025;-66
2021/01/27 01:54:51;;;;;;;130.10;35.90;;;0.00;97.70;;;;;;5026835;28;20060;-66
2021/01/27 01:57:25;;;;;;;119.35;34.72;;;0.00;97.70;;;;;;5022728;28;20033;-65
2021/01/27 02:00:07;;;;;;;134.43;35.70;;;-3276.70;97.70;;;;;;5023204;28;20052;-65
2021/01/27 02:02:34;;;;;;;140.93;37.35;;;0.00;97.80;;;;;;5023888;28;20419;-65
2021/01/27 02:05:04;;;;;;;118.80;35.35;;;-3276.70;97.80;;;;;;5027665;28;20042;-65
2021/01/27 02:07:30;;;;;;;140.27;36.67;;;-3276.70;97.80;;;;;;5025638;28;20034;-66
2021/01/27 02:09:56;;;;;;;126.40;35.65;;;-3276.70;97.80;;;;;;5012616;28;20061;-66
2021/01/27 02:12:49;;;;;;;131.32;37.13;;;-3276.70;97.80;;;;;;5007504;28;20076;-66
2021/01/27 02:15:29;;;;;;;133.00;36.30;;;-3276.70;97.80;;;;;;5030753;28;20529;-66
2021/01/27 02:18:07;;;;;;;140.00;36.93;;;-3276.70;97.80;;;;;;5005717;28;20030;-66
2021/01/27 02:20:32;;;;;;;134.00;35.90;;;-3276.70;97.80;;;;;;5025214;28;20268;-66
2021/01/27 02:23:36;;;;;;;141.93;38.22;;;-3276.70;97.80;;;;;;5015291;28;20029;-66
2021/01/27 02:26:23;;;;;;;142.23;36.22;;;0.00;97.90;;;;;;5034092;28;20041;-67
2021/01/27 02:29:26;;;;;;;131.55;35.42;;;-3276.70;97.90;;;;;;5025371;28;20396;-66
2021/01/27 02:32:00;;;;;;;138.55;35.30;;;0.00;97.90;;;;;;5006043;28;20095;-65
2021/01/27 02:35:18;;;;;;;137.20;37.75;;;-3276.70;97.90;;;;;;5027072;28;20032;-66
2021/01/27 02:37:55;;;;;;;127.63;36.70;;;-3276.70;97.90;;;;;;4984598;28;20046;-66
2021/01/27 02:40:36;;;;;;;141.43;38.35;;;-3276.70;97.90;;;;;;5014910;28;20030;-66
2021/01/27 02:43:06;;;;;;;139.73;39.00;;;-3276.70;97.90;;;;;;5010858;28;20065;-66
2021/01/27 02:45:35;;;;;;;151.27;40.00;;;0.00;97.90;;;;;;5026124;28;20582;-66
2021/01/27 02:48:10;;;;;;;151.55;41.10;;;0.00;97.90;;;;;;5015724;28;20037;-65
2021/01/27 02:50:54;;;;;;;158.18;41.08;;;0.00;97.90;;;;;;5027390;28;20034;-66
2021/01/27 02:53:24;;;;;;;162.25;41.33;;;0.00;97.90;;;;;;5018892;28;20036;-65
2021/01/27 02:55:56;;;;;;;151.50;40.65;;;0.00;97.90;;;;;;5030215;28;20018;-66
2021/01/27 02:58:43;;;;;;;153.15;39.63;;;0.00;98.00;;;;;;5021820;28;20025;-65
2021/01/27 03:01:32;;;;;;;164.63;41.78;;;0.00;98.00;;;;;;5031244;28;20144;-66
2021/01/27 03:04:06;;;;;;;158.32;42.90;;;0.00;97.90;;;;;;5027106;28;20048;-66
2021/01/27 03:06:33;;;;;;;153.32;42.08;;;0.00;98.00;;;;;;5043727;28;20044;-66
2021/01/27 03:09:09;;;;;;;178.77;43.38;;;0.00;98.00;;;;;;5019083;28;20453;-66
2021/01/27 03:11:35;;;;;;;176.23;44.30;;;0.00;98.00;;;;;;5018834;28;20040;-65
2021/01/27 03:14:03;;;;;;;177.63;46.20;;;0.10;98.00;;;;;;5025035;28;20033;-66
2021/01/27 03:16:41;;;;;;;184.52;44.92;;;0.10;98.00;;;;;;5027661;28;20064;-67
2021/01/27 03:19:23;;;;;;;173.20;45.28;;;0.10;98.00;;;;;;5028166;28;20053;-66
2021/01/27 03:21:54;;;;;;;162.93;44.55;;;0.10;98.00;;;;;;5025742;28;20044;-66
2021/01/27 03:24:22;;;;;;;166.20;44.33;;;0.10;98.00;;;;;;5019957;28;20029;-66
2021/01/27 03:26:51;;;;;;;167.48;43.15;;;0.10;98.00;;;;;;5030571;28;20021;-65
2021/01/27 03:29:35;;;;;;;187.95;48.70;;;0.10;97.90;;;;;;5010287;28;20484;-66
2021/01/27 03:32:06;;;;;;;183.45;45.58;;;0.10;98.00;;;;;;5015170;28;20037;-65
2021/01/27 03:34:35;;;;;;;;;;;0.20;98.00;;;;;;5010172;28;20033;-66
2021/01/27 03:37:08;;;;;;;183.30;43.65;;;0.20;98.00;;;;;;5026871;28;19913;-66
2021/01/27 03:39:40;;;;;;;190.55;48.53;;;0.20;98.00;;;;;;5028620;28;20037;-66
2021/01/27 03:42:12;;;;;;;186.70;49.83;;;0.20;98.00;;;;;;5022378;28;20029;-65
2021/01/27 03:45:03;;;;;;;174.52;48.10;;;0.30;98.00;;;;;;5011243;28;20026;-65
2021/01/27 03:48:04;;;;;;;202.77;50.28;;;0.30;98.00;;;;;;5024619;28;20080;-66
2021/01/27 03:50:29;;;;;;;;;;;0.30;98.00;;;;;;4997568;28;20026;-66
2021/01/27 03:53:08;;;;;;;189.02;47.22;;;0.40;98.00;;;;;;5016773;28;19928;-66
2021/01/27 03:55:51;;;;;;;220.00;47.90;;;0.40;98.00;;;;;;5029800;28;20029;-66
2021/01/27 03:58:41;;;;;;;200.13;51.22;;;0.40;98.00;;;;;;5028326;28;20013;-67
2021/01/27 04:01:19;;;;;;;198.50;52.08;;;0.40;98.00;;;;;;5025954;28;20063;-66
2021/01/27 04:03:45;;;;;;;189.02;52.70;;;0.50;98.00;;;;;;5020885;28;20063;-66
2021/01/27 04:06:12;;;;;;;221.05;54.22;;;0.40;98.00;;;;;;5029146;28;20110;-66
2021/01/27 04:08:38;;;;;;;197.20;52.70;;;0.50;98.00;;;;;;5015446;28;20029;-67
2021/01/27 04:11:05;;;;;;;210.45;54.45;;;0.50;98.00;;;;;;5010583;28;20036;-66
2021/01/27 04:13:32;;;;;;;202.93;52.95;;;0.50;97.90;;;;;;5020722;28;20049;-67
2021/01/27 04:15:58;;;;;;;197.65;54.67;;;0.50;97.90;;;;;;5022399;28;20026;-66
2021/01/27 04:18:25;;;;;;;190.98;51.80;;;0.60;98.00;;;;;;5018112;28;20021;-67
2021/01/27 04:20:51;;;;;;;188.23;52.35;;;0.60;97.90;;;;;;5020614;28;20239;-66
2021/01/27 04:23:17;;;;;;;204.93;55.75;;;0.60;97.90;;;;;;5013461;28;20440;-67
2021/01/27 04:25:42;;;;;;;195.32;52.83;;;0.60;97.90;;;;;;5023230;28;20045;-66
2021/01/27 04:28:08;;;;;;;174.40;49.28;;;0.60;97.90;;;;;;5026832;28;20036;-66
2021/01/27 04:30:35;;;;;;;187.05;51.38;;;0.60;97.90;;;;;;5027835;28;20034;-67
2021/01/27 04:33:04;;;;;;;183.43;49.72;;;0.60;97.90;;;;;;5025674;28;20025;-66
2021/01/27 04:35:31;;;;;;;184.98;52.53;;;0.60;97.90;;;;;;5017595;28;20112;-66
2021/01/27 04:37:57;;;;;;;167.52;49.05;;;0.70;97.90;;;;;;5027105;28;20052;-67
2021/01/27 04:40:32;;;;;;;164.70;48.88;;;0.70;97.90;;;;;;5024388;28;20488;-66
2021/01/27 04:42:58;;;;;;;175.10;49.17;;;0.70;97.80;;;;;;5022205;28;20025;-66
2021/01/27 04:45:25;;;;;;;156.35;48.13;;;0.70;97.80;;;;;;5020026;28;20061;-65
2021/01/27 04:48:10;;;;;;;170.73;48.20;;;0.70;97.80;;;;;;5033898;28;20065;-65
2021/01/27 04:50:48;;;;;;;151.43;48.10;;;0.70;97.80;;;;;;5020321;28;20446;-66
2021/01/27 04:53:36;;;;;;;133.35;46.38;;;0.70;97.80;;;;;;5019962;28;20120;-66
2021/01/27 04:56:29;;;;;;;147.88;46.65;;;0.70;97.80;;;;;;5028697;28;20286;-67
2021/01/27 04:59:07;;;;;;;140.52;45.15;;;0.70;97.70;;;;;;5011653;28;20025;-66
2021/01/27 05:01:44;;;;;;;146.27;46.45;;;0.70;97.70;;;;;;5026127;28;20021;-66
2021/01/27 05:04:36;;;;;;;141.60;46.72;;;0.70;97.70;;;;;;5027013;28;20045;-67
2021/01/27 05:07:07;;;;;;;160.10;46.22;;;0.80;97.70;;;;;;5009287;28;20072;-66
2021/01/27 05:09:39;;;;;;;143.27;45.08;;;0.70;97.70;;;;;;5012780;28;20032;-66
2021/01/27 05:12:07;;;;;;;143.20;46.35;;;0.70;97.60;;;;;;5020905;28;20560;-66
2021/01/27 05:14:33;;;;;;;144.13;47.55;;;0.80;97.60;;;;;;5016900;28;20030;-66
2021/01/27 05:17:03;;;;;;;133.73;46.13;;;0.70;97.60;;;;;;5027371;28;20025;-67
2021/01/27 05:19:29;;;;;;;147.23;46.03;;;0.70;97.60;;;;;;5008566;28;20022;-65
2021/01/27 05:21:57;;;;;;;140.05;48.03;;;0.80;97.60;;;;;;5009885;28;20056;-61
2021/01/27 05:24:23;;;;;;;125.20;46.17;;;0.80;97.60;;;;;;5023487;28;20099;-61
2021/01/27 05:26:51;;;;;;;131.65;46.05;;;0.80;97.60;;;;;;5019642;28;20476;-60
2021/01/27 05:29:29;;;;;;;139.27;46.13;;;0.80;97.50;;;;;;5015518;28;20033;-61
2021/01/27 05:32:09;;;;;;;119.30;44.72;;;0.80;97.50;;;;;;5042371;28;20276;-61
2021/01/27 05:34:44;;;;;;;122.35;45.15;;;0.80;97.50;;;;;;5018669;28;20041;-61
2021/01/27 05:37:19;;;;;;;121.55;45.75;;;0.80;97.40;;;;;;5020863;28;20072;-61
2021/01/27 05:39:46;;;;;;;116.82;47.08;;;0.80;97.40;;;;;;5035183;28;20082;-61
2021/01/27 05:42:40;;;;;;;126.38;46.55;;;0.80;97.40;;;;;;5027936;28;20029;-61
2021/01/27 05:45:46;;;;;;;121.95;45.47;;;0.80;97.30;;;;;;5007832;28;20365;-61
2021/01/27 05:48:12;;;;;;;123.32;47.28;;;0.80;97.30;;;;;;4982368;28;20740;-60
2021/01/27 05:50:40;;;;;;;111.03;44.03;;;0.80;97.30;;;;;;4970843;28;20401;-61
2021/01/27 05:53:18;;;;;;;120.00;45.67;;;0.80;97.20;;;;;;4983848;28;20042;-61
2021/01/27 05:56:08;;;;;;;124.05;46.90;;;0.80;97.20;;;;;;5027402;28;20706;-61
2021/01/27 05:58:39;;;;;;;136.55;48.97;;;0.80;97.10;;;;;;5017768;28;20257;-61
2021/01/27 06:01:21;;;;;;;117.30;47.22;;;0.80;97.10;;;;;;5019171;28;20021;-60
2021/01/27 06:03:51;;;;;;;112.55;47.63;;;0.80;97.10;;;;;;5001022;28;20048;-61
2021/01/27 06:06:17;;;;;;;112.15;48.78;;;0.80;97.10;;;;;;4992822;28;21904;-60
2021/01/27 06:08:52;;;;;;;102.13;47.13;;;0.80;97.00;;;;;;5010353;28;20140;-60
2021/01/27 06:11:19;;;;;;;108.60;48.13;;;0.80;97.00;;;;;;5006260;28;20025;-61
2021/01/27 06:13:45;;;;;;;112.55;46.38;;;0.80;97.00;;;;;;5006565;28;20032;-60
2021/01/27 06:16:20;;;;;;;106.30;48.15;;;0.80;96.90;;;;;;5004718;28;20511;-60
2021/01/27 06:18:46;;;;;;;111.10;48.08;;;0.80;96.90;;;;;;5004141;28;20036;-60
2021/01/27 06:21:45;;;;;;;108.45;48.42;;;0.80;96.90;;;;;;5005244;28;20040;-59
2021/01/27 06:24:37;;;;;;;95.63;45.40;;;0.80;96.80;;;;;;5009983;28;20525;-60
2021/01/27 06:27:21;;;;;;;100.45;47.53;;;0.80;96.80;;;;;;5025993;28;20026;-60
2021/01/27 06:29:55;;;;;;;105.68;46.63;;;0.80;96.70;;;;;;5018841;28;20028;-60
2021/01/27 06:32:55;;;;;;;99.13;47.70;;;0.80;96.70;;;;;;5028458;28;20391;-61
2021/01/27 06:35:59;;;;;;;98.70;47.35;;;0.70;96.60;;;;;;5026219;28;20069;-61
2021/01/27 06:39:03;;;;;;;92.55;46.42;;;0.70;96.60;;;;;;4966489;28;20567;-61
2021/01/27 06:42:02;;;;;;;92.25;45.60;;;0.70;96.60;;;;;;4969553;28;20049;-60
2021/01/27 06:45:09;;;;;;;87.80;43.50;;;0.70;96.50;;;;;;5009806;28;20046;-60
2021/01/27 06:47:40;;;;;;;95.82;47.47;;;0.70;96.40;;;;;;5018644;28;20178;-60
2021/01/27 06:50:25;;;;;;;85.07;45.33;;;0.70;96.20;;;;;;5012139;28;20112;-60
2021/01/27 06:53:38;;;;;;;85.38;45.53;;;0.60;96.20;;;;;;5028396;28;20030;-60
2021/01/27 06:56:07;;;;;;;91.80;46.65;;;0.60;96.30;;;;;;5021614;28;20017;-60
2021/01/27 06:58:51;;;;;;;90.50;44.60;;;0.60;96.30;;;;;;5026794;28;20030;-60
2021/01/27 07:01:46;;;;;;;88.03;47.20;;;0.60;96.20;;;;;;5017869;28;20029;-60
2021/01/27 07:05:41;;;;;;;84.63;45.08;;;0.60;96.20;;;;;;5067189;27;20371;-64
2021/01/27 07:08:51;;;;;;;91.57;46.63;;;0.50;96.10;;;;;;5040967;28;20045;-63
2021/01/27 07:11:35;;;;;;;93.18;45.45;;;0.50;96.10;;;;;;5014029;28;20041;-64
2021/01/27 07:14:26;;;;;;;90.90;47.38;;;0.50;96.10;;;;;;5034400;28;20488;-63
2021/01/27 07:17:29;;;;;;;96.13;47.95;;;0.40;96.10;;;;;;5035481;28;20029;-63
2021/01/27 07:20:09;;;;;;;99.75;48.90;;;0.40;96.20;;;;;;5028497;28;20109;-64
2021/01/27 07:22:50;;;;;;;97.22;47.72;;;0.30;96.30;;;;;;5041822;28;20032;-64
2021/01/27 07:25:28;;;;;;;95.60;48.95;;;0.30;96.30;;;;;;5032556;28;20044;-64
2021/01/27 07:27:59;;;;;;;102.43;50.15;;;0.30;96.30;;;;;;5040150;28;20060;-62
2021/01/27 07:31:03;;;;;;;91.45;47.50;;;0.30;96.30;;;;;;5044072;28;20086;-64
2021/01/27 07:33:53;;;;;;;109.68;50.78;;;0.30;96.40;;;;;;5032150;28;20053;-64
2021/01/27 07:36:25;;;;;;;94.57;48.03;;;0.20;96.30;;;;;;5035619;28;20063;-64
2021/01/27 07:38:57;;;;;;;102.35;49.55;;;0.30;96.30;;;;;;5033674;28;20021;-64
2021/01/27 07:41:32;;;;;;;99.22;49.47;;;0.30;96.30;;;;;;5038616;28;21361;-63
2021/01/27 07:44:05;;;;;;;99.78;50.25;;;0.30;96.30;;;;;;5028444;28;20017;-63
2021/01/27 07:46:38;;;;;;;93.28;48.97;;;0.20;96.20;;;;;;5025061;28;20116;-62
2021/01/27 07:49:05;;;;;;;90.53;45.97;;;0.20;96.30;;;;;;5024424;28;20455;-63
2021/01/27 07:51:58;;;;;;;92.90;47.38;;;0.20;96.20;;;;;;5029317;28;20119;-63
2021/01/27 07:54:27;;;;;;;95.70;48.95;;;0.20;96.20;;;;;;5025649;28;20049;-63
2021/01/27 07:57:24;;;;;;;89.05;48.63;;;0.20;96.30;;;;;;5025511;28;20036;-64
2021/01/27 08:00:16;;;;;;;93.30;47.33;;;0.20;96.10;;;;;;5032600;28;20109;-64
2021/01/27 08:03:08;;;;;;;88.93;47.67;;;0.20;96.10;;;;;;5020019;28;20419;-64
2021/01/27 08:05:42;;;;;;;88.72;45.05;;;0.30;96.00;;;;;;5010367;28;20461;-64
2021/01/27 08:08:21;;;;;;;78.90;44.63;;;0.30;95.80;;;;;;5025109;28;20120;-63
2021/01/27 08:10:49;;;;;;;78.82;42.88;;;0.30;95.70;;;;;;5030829;28;20036;-63
2021/01/27 08:13:27;;;;;;;69.70;40.08;;;0.30;95.50;;;;;;5019733;28;20443;-64
2021/01/27 08:15:59;;;;;;;74.22;40.72;;;0.30;95.40;;;;;;5015353;28;20439;-64
2021/01/27 08:18:25;;;;;;;65.10;39.47;;;0.30;95.10;;;;;;5017162;28;20492;-64
2021/01/27 08:21:29;;;;;;;66.55;38.53;;;0.30;94.90;;;;;;5018760;28;20048;-64
2021/01/27 08:23:55;;;;;;;55.50;34.83;;;0.30;94.90;;;;;;5004511;28;20056;-64
2021/01/27 08:26:43;;;;;;;59.72;36.15;;;0.30;94.60;;;;;;5017959;28;20555;-64
2021/01/27 08:29:11;;;;;;;55.25;33.40;;;0.30;94.60;;;;;;5010321;28;20634;-64
2021/01/27 08:31:37;;;;;;;55.95;33.90;;;0.30;94.60;;;;;;5014823;28;20893;-62
2021/01/27 08:34:03;;;;;;;50.50;33.78;;;0.30;94.40;;;;;;5007957;28;20526;-63
2021/01/27 08:36:28;;;;;;;55.33;34.85;;;0.30;94.40;;;;;;5018638;28;20038;-62
2021/01/27 08:38:57;;;;;;;60.45;36.60;;;0.40;94.40;;;;;;5012549;28;20033;-63
2021/01/27 08:41:56;;;;;;;55.25;33.60;;;0.50;94.40;;;;;;5019579;28;20035;-65
2021/01/27 08:44:22;;;;;;;45.08;30.67;;;0.60;93.70;;;;;;5009246;28;20052;-63
2021/01/27 08:46:52;;;;;;;52.30;32.33;;;0.60;93.60;;;;;;5012752;28;20033;-64
2021/01/27 08:49:36;;;;;;;50.85;29.92;;;0.70;93.80;;;;;;5015793;28;20273;-65
2021/01/27 08:52:21;;;;;;;44.45;28.58;;;0.80;93.10;;;;;;5018087;28;20057;-63
2021/01/27 08:54:50;;;;;;;39.97;25.85;;;0.90;92.20;;;;;;5011695;28;20040;-64
2021/01/27 08:57:42;;;;;;;36.10;24.83;;;1.00;92.20;;;;;;5010411;28;20037;-64
2021/01/27 09:00:09;;;;;;;36.33;23.00;;;1.10;91.80;;;;;;5025901;28;20454;-64
2021/01/27 09:02:47;;;;;;;30.60;20.58;;;1.10;91.00;;;;;;5006015;28;20112;-64
2021/01/27 09:05:22;;;;;;;31.20;20.55;;;1.10;90.60;;;;;;5011176;28;20061;-63
2021/01/27 09:08:08;;;;;;;31.20;20.58;;;1.20;91.20;;;;;;5013316;28;20568;-64
2021/01/27 09:10:38;;;;;;;30.58;20.38;;;1.20;90.70;;;;;;5014766;28;20040;-62
2021/01/27 09:13:31;;;;;;;32.83;20.10;;;1.20;90.30;;;;;;5012232;28;20044;-61
2021/01/27 09:16:27;;;;;;;29.17;19.42;;;1.30;90.60;;;;;;5014789;28;20761;-64
2021/01/27 09:19:09;;;;;;;27.02;17.90;;;1.30;89.90;;;;;;5015705;28;20429;-63
2021/01/27 09:21:35;;;;;;;26.75;17.70;;;1.40;89.50;;;;;;5015601;28;20536;-64
2021/01/27 09:24:06;;;;;;;26.98;17.80;;;1.50;90.00;;;;;;5010368;28;20121;-62
2021/01/27 09:26:39;;;;;;;28.20;17.13;;;1.50;89.00;;;;;;5015229;28;20104;-62
2021/01/27 09:29:11;;;;;;;29.30;17.33;;;1.60;89.30;;;;;;5014734;28;20063;-61
2021/01/27 09:31:37;;;;;;;26.70;17.63;;;1.60;89.00;;;;;;5027395;28;20028;-64
2021/01/27 09:34:23;;;;;;;27.27;15.55;;;1.70;88.40;;;;;;5020713;28;20026;-63
2021/01/27 09:36:53;;;;;;;26.13;15.60;;;1.90;87.70;;;;;;5024274;28;20025;-64
2021/01/27 09:39:31;;;;;;;21.25;14.98;;;2.00;87.60;;;;;;5016455;28;20056;-63
2021/01/27 09:42:01;;;;;;;21.88;13.73;;;2.10;87.40;;;;;;5021958;28;20040;-63
2021/01/27 09:44:38;;;;;;;21.33;13.52;;;2.20;86.40;;;;;;5022865;28;20090;-64
2021/01/27 09:47:12;;;;;;;26.17;14.57;;;2.30;86.50;;;;;;5027381;28;20388;-64
2021/01/27 09:49:47;;;;;;;19.83;13.55;;;2.30;86.60;;;;;;5031147;28;20029;-63
2021/01/27 09:52:15;;;;;;;20.92;13.10;;;2.50;86.00;;;;;;5024851;28;20140;-64
2021/01/27 09:54:44;;;;;;;19.92;10.95;;;2.50;86.10;;;;;;5020746;28;20052;-64
2021/01/27 09:57:11;;;;;;;18.35;11.60;;;2.40;84.50;;;;;;5013481;28;20029;-63
2021/01/27 09:59:38;;;;;;;17.40;10.20;;;2.50;84.80;;;;;;5020824;28;20060;-64
2021/01/27 10:02:04;;;;;;;16.60;11.27;;;2.50;84.70;;;;;;5022051;28;20480;-65
2021/01/27 10:04:36;;;;;;;15.77;9.38;;;2.60;84.80;;;;;;5021244;28;20033;-65
2021/01/27 10:07:20;;;;;;;16.13;9.48;;;2.60;84.20;;;;;;5035721;28;20022;-64
2021/01/27 10:09:55;;;;;;;15.10;9.10;;;2.70;84.60;;;;;;5012820;28;20245;-64
2021/01/27 10:12:25;;;;;;;16.80;8.38;;;2.90;84.50;;;;;;5026728;28;20508;-64
2021/01/27 10:15:02;;;;;;;13.40;8.48;;;3.00;83.60;;;;;;5015962;28;20029;-64
2021/01/27 10:17:30;;;;;;;15.98;7.93;;;3.20;83.20;;;;;;5030335;28;20036;-65
2021/01/27 10:20:14;;;;;;;13.98;8.15;;;3.50;82.60;;;;;;5021478;28;20116;-65
2021/01/27 10:22:44;;;;;;;12.98;7.05;;;3.50;81.80;;;;;;5030990;28;20040;-63
2021/01/27 10:25:34;;;;;;;14.43;7.40;;;3.40;81.30;;;;;;5020409;28;20546;-64
2021/01/27 10:28:13;;;;;;;12.70;6.95;;;3.60;82.20;;;;;;5013848;28;20033;-65
2021/01/27 10:30:45;;;;;;;11.77;7.10;;;3.40;81.30;;;;;;5024702;28;20052;-64
2021/01/27 10:33:50;;;;;;;12.70;6.32;;;3.40;81.80;;;;;;5021817;28;20025;-64
2021/01/27 10:36:28;;;;;;;14.20;6.78;;;3.30;81.40;;;;;;5016644;28;20026;-63
2021/01/27 10:39:15;;;;;;;10.77;6.15;;;3.10;81.30;;;;;;5025131;28;20021;-65
2021/01/27 10:41:41;;;;;;;10.43;5.93;;;3.10;81.70;;;;;;5022568;28;20022;-64
2021/01/27 10:44:30;;;;;;;10.48;5.80;;;3.00;81.90;;;;;;5022848;28;20029;-64
2021/01/27 10:46:59;;;;;;;10.07;6.07;;;3.00;81.60;;;;;;5024773;28;20021;-65
2021/01/27 10:49:26;;;;;;;9.55;5.80;;;3.00;81.40;;;;;;5016846;28;20021;-65
2021/01/27 10:51:51;;;;;;;8.63;4.93;;;3.00;81.50;;;;;;5021886;28;20063;-65
2021/01/27 10:54:22;;;;;;;9.18;5.60;;;3.00;81.40;;;;;;5022510;28;20452;-64
2021/01/27 10:56:53;;;;;;;12.45;5.25;;;3.10;81.90;;;;;;5025490;28;20033;-65
2021/01/27 10:59:19;;;;;;;9.68;5.15;;;3.00;81.10;;;;;;5023054;28;20061;-64
2021/01/27 11:01:44;;;;;;;7.72;4.85;;;3.00;81.00;;;;;;5026930;28;20075;-65
2021/01/27 11:04:10;;;;;;;8.77;4.97;;;3.10;81.40;;;;;;5012843;28;20495;-64
2021/01/27 11:06:38;;;;;;;6.82;4.38;;;3.10;81.50;;;;;;5024057;28;20033;-65
2021/01/27 11:09:04;;;;;;;9.00;5.05;;;3.10;82.30;;;;;;5024848;28;20045;-63
2021/01/27 11:11:29;;;;;;;8.93;4.80;;;3.10;81.50;;;;;;5022763;28;20112;-66
2021/01/27 11:13:55;;;;;;;8.25;4.88;;;3.00;81.70;;;;;;5023805;28;20506;-66
2021/01/27 11:16:21;;;;;;;8.77;4.60;;;3.00;82.10;;;;;;5017269;28;21809;-66
2021/01/27 11:18:47;;;;;;;7.75;4.53;;;3.00;81.70;;;;;;5016902;28;20041;-64
2021/01/27 11:21:13;;;;;;;6.53;4.05;;;3.00;81.90;;;;;;5029359;28;20094;-64
2021/01/27 11:23:38;;;;;;;10.15;4.65;;;3.00;82.80;;;;;;5032547;28;20056;-64
2021/01/27 11:26:04;;;;;;;8.70;4.45;;;3.00;83.00;;;;;;5021137;28;20040;-65
2021/01/27 11:28:30;;;;;;;7.28;4.30;;;2.90;83.10;;;;;;5014488;28;20026;-65
2021/01/27 11:30:56;;;;;;;7.50;3.90;;;2.90;83.00;;;;;;5030502;28;20088;-65
2021/01/27 11:33:25;;;;;;;9.77;4.30;;;2.90;82.60;;;;;;5012105;28;20379;-64
2021/01/27 11:35:52;;;;;;;7.22;3.53;;;2.90;83.10;;;;;;5018391;28;20400;-65
2021/01/27 11:38:18;;;;;;;6.78;3.88;;;2.90;82.50;;;;;;5011987;28;20108;-65
2021/01/27 11:40:44;;;;;;;7.55;3.88;;;2.90;82.80;;;;;;5030157;28;20112;-64
2021/01/27 11:43:12;;;;;;;5.63;3.28;;;2.90;82.60;;;;;;5025181;28;20393;-62
2021/01/27 11:45:38;;;;;;;7.20;4.13;;;2.80;82.30;;;;;;5018834;28;20025;-66
2021/01/27 11:48:04;;;;;;;5.88;3.60;;;2.80;82.90;;;;;;5056383;28;20033;-65
2021/01/27 11:50:30;;;;;;;8.20;3.75;;;2.80;82.50;;;;;;5029309;28;20153;-65
2021/01/27 11:52:56;;;;;;;6.88;4.15;;;2.80;82.80;;;;;;5025304;28;20451;-65
2021/01/27 11:55:22;;;;;;;7.22;4.00;;;2.90;83.30;;;;;;5020383;28;20025;-65
2021/01/27 11:57:48;;;;;;;6.28;3.78;;;2.90;83.60;;;;;;5035089;28;20056;-65
2021/01/27 12:00:18;;;;;;;7.95;3.92;;;2.90;83.10;;;;;;5023035;28;20037;-63
2021/01/27 12:02:44;;;;;;;7.60;3.83;;;2.90;82.90;;;;;;5015953;28;20071;-62
2021/01/27 12:05:10;;;;;;;7.55;3.65;;;2.90;83.10;;;;;;5025145;28;20029;-64
2021/01/27 12:07:35;;;;;;;8.02;3.70;;;2.90;83.20;;;;;;5013713;28;20333;-64
2021/01/27 12:10:01;;;;;;;7.10;3.90;;;2.90;83.10;;;;;;5014801;28;20045;-65
2021/01/27 12:12:27;;;;;;;6.70;3.60;;;2.80;83.00;;;;;;5023796;28;20514;-65
2021/01/27 12:14:52;;;;;;;5.97;3.72;;;2.80;83.80;;;;;;5035022;28;20091;-64
2021/01/27 12:17:18;;;;;;;9.27;3.78;;;2.80;83.10;;;;;;5020010;28;20029;-64
2021/01/27 12:19:43;;;;;;;6.40;3.60;;;2.80;83.30;;;;;;5024978;28;20440;-66
2021/01/27 12:22:09;;;;;;;5.93;3.70;;;2.80;83.80;;;;;;5017719;28;20037;-65
2021/01/27 12:24:34;;;;;;;5.93;3.55;;;2.80;83.50;;;;;;5017520;28;20033;-65
2021/01/27 12:27:00;;;;;;;6.45;3.78;;;2.80;83.70;;;;;;5023027;28;20461;-65
2021/01/27 12:29:26;;;;;;;5.40;3.55;;;2.90;83.70;;;;;;5019753;28;20083;-65
2021/01/27 12:31:52;;;;;;;6.80;3.58;;;2.90;83.70;;;;;;5028568;28;20025;-67
2021/01/27 12:34:19;;;;;;;7.43;4.25;;;3.00;83.40;;;;;;5021547;28;20034;-65
2021/01/27 12:36:45;;;;;;;6.88;3.92;;;3.00;83.40;;;;;;5016684;28;20611;-66
2021/01/27 12:39:11;;;;;;;6.43;3.95;;;3.10;83.40;;;;;;5028379;28;20092;-66
2021/01/27 12:41:36;;;;;;;5.70;3.90;;;3.00;83.20;;;;;;5024510;28;20492;-67
2021/01/27 12:44:03;;;;;;;8.38;4.03;;;3.10;83.80;;;;;;5016970;28;20053;-65
2021/01/27 12:46:29;;;;;;;5.68;3.22;;;3.10;82.70;;;;;;5025733;28;20416;-66
2021/01/27 12:48:54;;;;;;;5.53;3.50;;;3.20;82.70;;;;;;5006720;28;20064;-66
2021/01/27 12:51:20;;;;;;;7.10;4.32;;;3.30;83.10;;;;;;5031190;28;20049;-65
2021/01/27 12:53:46;;;;;;;8.02;4.45;;;3.20;83.10;;;;;;5014815;28;20107;-64
2021/01/27 12:56:12;;;;;;;8.80;4.32;;;3.10;83.00;;;;;;5021556;28;20595;-66
2021/01/27 12:58:39;;;;;;;8.43;4.82;;;3.10;83.50;;;;;;5028793;28;20041;-66
2021/01/27 13:01:05;;;;;;;9.95;4.85;;;3.10;83.90;;;;;;5028774;28;20037;-65
2021/01/27 13:03:30;;;;;;;10.75;4.47;;;3.10;84.20;;;;;;5049520;23;20118;-65
2021/01/27 13:05:56;;;;;;;7.72;4.80;;;3.10;84.40;;;;;;5051786;28;20023;-66
2021/01/27 13:08:22;;;;;;;7.72;4.63;;;2.90;84.40;;;;;;5037779;28;20021;-67
2021/01/27 13:10:47;;;;;;;9.18;4.78;;;2.80;84.90;;;;;;5039315;28;20049;-67